Time;durP1;ratioP1;P1;durP2;ratioP2;P2;SDS_P1;SDS_P2;PMS_P1;PMS_P2;Temp;Humidity;BMP_temperature;BMP_pressure;BME280_temperature;BME280_humidity;BME280_pressure;Samples;Min_cycle;Max_cycle;Signal;HPM_P1;HPM_P2
2023/03/01 00:01:30;;;;;;;12.95;5.60;;;;;;;-4.96;100.00;102932.66;4943074;28;20059;-90
2023/03/01 00:03:57;;;;;;;9.67;5.57;;;;;;;-4.92;100.00;102940.19;5005086;23;20506;-90
2023/03/01 00:06:50;;;;;;;8.82;5.60;;;;;;;-4.58;100.00;102989.41;4946533;29;20113;-88
2023/03/01 00:12:38;;;;;;;10.17;4.90;;;;;;;-4.96;100.00;102971.88;4942711;29;20290;-91
2023/03/01 00:15:04;;;;;;;9.50;5.32;;;;;;;-5.27;100.00;102927.69;4937894;28;20031;-91
2023/03/01 00:17:30;;;;;;;9.73;5.65;;;;;;;-5.21;100.00;102945.59;4933139;28;20484;-90
2023/03/01 00:22:41;;;;;;;11.45;5.43;;;;;;;-5.17;100.00;102954.06;4924167;29;20451;-91
2023/03/01 00:38:03;;;;;;;11.93;5.75;;;;;;;-5.55;100.00;102952.16;5511120;23;20511;-90
2023/03/01 00:40:31;;;;;;;9.93;5.60;;;;;;;-5.67;100.00;102932.88;4938936;29;20023;-89
2023/03/01 00:42:57;;;;;;;10.00;6.03;;;;;;;-5.44;100.00;102975.00;4938590;29;20296;-89
2023/03/01 00:45:38;;;;;;;8.27;5.57;;;;;;;-5.45;100.00;102984.59;4936154;29;20031;-90
2023/03/01 00:51:33;;;;;;;11.30;6.00;;;;;;;-5.69;100.00;102940.81;4943812;29;20043;-90
2023/03/01 00:54:02;;;;;;;10.18;6.07;;;;;;;-5.62;100.00;102952.53;4934827;29;20039;-90
2023/03/01 00:56:28;;;;;;;10.38;6.18;;;;;;;-5.85;100.00;102914.84;4936300;29;20480;-90
2023/03/01 00:58:53;;;;;;;10.18;5.90;;;;;;;-5.60;100.00;102949.84;4937772;29;20042;-90
2023/03/01 01:01:22;;;;;;;9.23;5.97;;;;;;;-5.52;100.00;102968.47;4935890;29;20064;-90
2023/03/01 01:03:56;;;;;;;10.18;5.68;;;;;;;-5.52;100.00;102946.75;4937458;29;20040;-90
2023/03/01 01:06:23;;;;;;;10.25;6.07;;;;;;;-5.48;100.00;102958.69;4956912;29;20091;-90
2023/03/01 01:08:50;;;;;;;9.77;6.57;;;;;;;-5.47;100.00;102952.50;4936713;29;20586;-90
2023/03/01 01:11:16;;;;;;;11.25;5.65;;;;;;;-5.51;100.00;102958.88;4941189;29;20046;-90
2023/03/01 01:13:42;;;;;;;12.23;6.50;;;;;;;-5.62;100.00;102952.53;4946917;29;20495;-90
2023/03/01 01:16:08;;;;;;;13.33;6.33;;;;;;;-5.74;100.00;102942.88;4936159;29;20024;-90
2023/03/01 01:18:34;;;;;;;11.05;6.47;;;;;;;-5.82;100.00;102939.91;4926701;29;20024;-90
2023/03/01 01:21:07;;;;;;;10.93;6.13;;;;;;;-5.84;100.00;102944.41;4932900;29;20458;-90
2023/03/01 01:23:32;;;;;;;12.70;6.23;;;;;;;-5.88;100.00;102946.38;4959788;28;20039;-90
2023/03/01 01:26:04;;;;;;;10.50;6.13;;;;;;;-5.95;100.00;102934.66;4960385;28;20319;-89
2023/03/01 01:28:29;;;;;;;12.98;6.18;;;;;;;-6.03;100.00;102931.69;4952889;29;20128;-90
2023/03/01 01:30:56;;;;;;;11.30;5.97;;;;;;;-6.07;100.00;102925.84;4940849;29;20106;-90
2023/03/01 01:35:56;;;;;;;10.02;6.13;;;;;;;-6.14;100.00;102908.88;4970369;23;20057;-90
2023/03/01 01:38:22;;;;;;;11.33;6.30;;;;;;;-6.10;100.00;102912.97;4916366;29;20096;-90
2023/03/01 01:40:49;;;;;;;10.17;6.00;;;;;;;-6.16;100.00;102910.72;4932146;29;20033;-91
2023/03/01 01:43:20;;;;;;;12.15;6.10;;;;;;;-6.19;100.00;102916.13;4918791;29;20036;-91
2023/03/01 01:45:45;;;;;;;11.35;6.18;;;;;;;-6.29;100.00;102898.47;4920448;29;20039;-90
2023/03/01 01:48:21;;;;;;;12.07;6.50;;;;;;;-6.19;100.00;102910.91;4924788;29;20115;-89
2023/03/01 02:10:50;;;;;;;9.93;5.93;;;;;;;-6.63;100.00;102892.72;5095087;23;20063;-91
2023/03/01 02:13:16;;;;;;;12.02;5.85;;;;;;;-6.64;100.00;102883.19;4954294;28;20031;-90
2023/03/01 02:15:43;;;;;;;10.77;6.38;;;;;;;-6.65;100.00;102875.47;4951922;28;20364;-90
2023/03/01 02:18:11;;;;;;;11.95;6.63;;;;;;;-6.57;100.00;102871.44;4953018;28;20035;-90
2023/03/01 02:20:37;;;;;;;10.10;6.18;;;;;;;-6.39;100.00;102881.72;4953036;29;20054;-90
2023/03/01 02:23:02;;;;;;;10.70;5.90;;;;;;;-6.27;100.00;102878.34;4953536;28;20483;-91
2023/03/01 02:26:00;;;;;;;13.15;6.45;;;;;;;-6.19;100.00;102875.25;4951892;28;20106;-91
2023/03/01 02:28:40;;;;;;;15.55;6.68;;;;;;;-6.14;100.00;102882.78;4951983;29;20039;-90
2023/03/01 02:33:53;;;;;;;11.00;5.80;;;;;;;-6.16;100.00;102884.63;4952238;29;20310;-90
2023/03/01 02:36:21;;;;;;;8.45;5.50;;;;;;;-6.39;100.00;102853.84;4962547;28;20055;-89
2023/03/01 02:38:49;;;;;;;10.00;6.05;;;;;;;-6.24;100.00;102880.75;4955516;28;20042;-89
2023/03/01 02:41:18;;;;;;;11.35;5.97;;;;;;;-6.31;100.00;102865.56;4952966;28;20031;-89
2023/03/01 02:43:46;;;;;;;12.93;6.25;;;;;;;-6.33;100.00;102863.03;4961788;28;20035;-88
2023/03/01 02:46:18;;;;;;;12.93;6.28;;;;;;;-6.24;100.00;102870.31;4954184;28;20066;-88
2023/03/01 02:48:50;;;;;;;12.07;6.17;;;;;;;-6.24;100.00;102867.69;4953144;28;20085;-88
2023/03/01 02:51:29;;;;;;;9.97;5.60;;;;;;;-6.16;100.00;102884.63;4951592;28;20437;-88
2023/03/01 02:54:06;;;;;;;9.65;6.03;;;;;;;-6.25;100.00;102881.69;4950165;28;20027;-88
2023/03/01 02:56:31;;;;;;;11.85;5.82;;;;;;;-6.33;100.00;102864.81;4950808;28;20046;-86
2023/03/01 02:59:00;;;;;;;10.30;6.37;;;;;;;-6.25;100.00;102866.03;4952155;28;20028;-88
2023/03/01 03:01:36;;;;;;;14.73;6.47;;;;;;;-6.14;100.00;102873.19;4932945;29;20380;-86
2023/03/01 03:04:01;;;;;;;14.80;6.07;;;;;;;-6.24;100.00;102872.06;4941203;29;20051;-88
2023/03/01 03:06:27;;;;;;;10.15;6.53;;;;;;;-6.25;100.00;102870.38;4944732;29;20066;-88
2023/03/01 03:08:52;;;;;;;11.93;6.60;;;;;;;-6.16;100.00;102874.19;4951386;28;20102;-88
2023/03/01 03:11:17;;;;;;;10.23;6.03;;;;;;;-6.24;100.00;102864.25;4952775;28;20082;-87
2023/03/01 03:13:47;;;;;;;8.93;5.47;;;;;;;-6.22;100.00;102878.03;4950829;28;20027;-88
2023/03/01 03:16:13;;;;;;;11.57;6.40;;;;;;;-6.29;100.00;102885.41;4950972;28;20031;-87
2023/03/01 03:18:38;;;;;;;11.27;6.18;;;;;;;-6.38;100.00;102875.53;4951077;29;20027;-88
2023/03/01 03:21:10;;;;;;;10.17;5.60;;;;;;;-6.44;100.00;102881.16;4952109;28;20031;-89
2023/03/01 03:23:35;;;;;;;9.73;5.60;;;;;;;-6.44;100.00;102886.38;4951143;28;20067;-89
2023/03/01 03:26:03;;;;;;;12.87;5.63;;;;;;;-6.47;100.00;102883.94;4951616;28;20752;-88
2023/03/01 03:28:30;;;;;;;9.80;5.63;;;;;;;-6.60;100.00;102848.19;4953008;28;20055;-88
2023/03/01 03:31:03;;;;;;;12.77;6.32;;;;;;;-6.43;100.00;102862.78;4951817;28;20024;-88
2023/03/01 03:33:31;;;;;;;12.52;5.88;;;;;;;-6.32;100.00;102874.34;4950040;28;20027;-88
2023/03/01 03:35:56;;;;;;;9.85;5.68;;;;;;;-6.27;100.00;102867.03;4952054;28;20043;-87
2023/03/01 03:38:22;;;;;;;8.13;5.10;;;;;;;-6.38;100.00;102859.88;4953737;28;20090;-87
2023/03/01 03:40:51;;;;;;;12.50;6.30;;;;;;;-6.34;100.00;102874.41;4953381;28;20051;-88
2023/03/01 03:43:19;;;;;;;13.87;5.53;;;;;;;-6.45;100.00;102848.97;4954706;28;20440;-88
2023/03/01 03:45:46;;;;;;;9.90;6.00;;;;;;;-6.39;100.00;102869.50;4947950;28;20307;-90
2023/03/01 03:48:12;;;;;;;12.00;5.60;;;;;;;-6.43;100.00;102862.78;4955937;28;20023;-88
2023/03/01 03:50:41;;;;;;;12.60;5.53;;;;;;;-6.48;100.00;102858.78;4956989;28;20035;-88
2023/03/01 03:53:09;;;;;;;11.00;6.10;;;;;;;-6.44;100.00;102860.28;4955327;28;20491;-88
2023/03/01 03:55:38;;;;;;;11.05;5.70;;;;;;;-6.36;100.00;102871.06;4956334;29;20050;-89
2023/03/01 03:58:06;;;;;;;11.50;5.75;;;;;;;-6.28;100.00;102870.56;4955797;28;20031;-88
2023/03/01 04:00:38;;;;;;;10.85;5.55;;;;;;;-6.28;100.00;102863.59;4959348;28;20023;-88
2023/03/01 04:03:03;;;;;;;12.15;5.55;;;;;;;-6.30;100.00;102862.03;4951190;29;20023;-88
2023/03/01 04:05:29;;;;;;;11.17;5.40;;;;;;;-6.25;100.00;102866.03;4974810;29;20065;-88
2023/03/01 04:08:03;;;;;;;9.98;5.97;;;;;;;-6.33;100.00;102839.56;4974681;28;20003;-87
2023/03/01 04:10:31;;;;;;;12.50;5.40;;;;;;;-6.32;100.00;102832.59;4971587;28;20028;-87
2023/03/01 04:12:56;;;;;;;9.27;5.13;;;;;;;-6.36;100.00;102837.13;4954788;28;20310;-87
2023/03/01 04:15:23;;;;;;;10.02;5.18;;;;;;;-6.40;100.00;102839.09;4962702;29;20027;-88
2023/03/01 04:17:51;;;;;;;7.70;5.10;;;;;;;-6.47;100.00;102834.38;4935570;29;20411;-88
2023/03/01 04:20:25;;;;;;;9.07;4.43;;;;;;;-6.53;100.00;102840.81;4940185;29;20036;-89
2023/03/01 04:22:56;;;;;;;10.50;5.37;;;;;;;-6.43;100.00;102846.31;4947900;28;20294;-89
2023/03/01 04:25:25;;;;;;;8.07;4.72;;;;;;;-6.41;100.00;102847.03;4951172;29;20039;-89
2023/03/01 04:27:50;;;;;;;9.23;4.93;;;;;;;-6.59;100.00;102826.38;4948919;28;20038;-90
2023/03/01 04:30:16;;;;;;;9.67;4.77;;;;;;;-6.58;100.00;102833.28;4955152;28;20403;-88
2023/03/01 04:32:42;;;;;;;8.60;5.07;;;;;;;-6.59;100.00;102815.09;4954960;28;20067;-89
2023/03/01 04:35:08;;;;;;;10.57;5.43;;;;;;;-6.60;100.00;102827.31;4955560;28;20023;-89
2023/03/01 04:37:34;;;;;;;8.48;5.35;;;;;;;-6.67;100.00;102818.19;4955069;28;20475;-89
2023/03/01 04:40:00;;;;;;;7.15;4.43;;;;;;;-6.61;100.00;102836.06;4954651;29;20031;-89
2023/03/01 04:42:25;;;;;;;8.43;4.77;;;;;;;-6.50;100.00;102838.03;4955013;28;20563;-88
2023/03/01 04:44:51;;;;;;;9.23;5.17;;;;;;;-6.55;100.00;102809.59;4955502;28;20339;-89
2023/03/01 04:47:16;;;;;;;9.97;4.97;;;;;;;-6.50;100.00;102824.97;4953310;28;20503;-88
2023/03/01 04:49:42;;;;;;;12.73;5.20;;;;;;;-6.48;100.00;102822.25;4953742;29;20479;-88
2023/03/01 04:52:07;;;;;;;10.07;5.37;;;;;;;-6.47;100.00;102818.72;4956138;28;20035;-91
2023/03/01 04:54:34;;;;;;;11.40;5.70;;;;;;;-6.47;100.00;102813.50;4955959;28;20031;-90
2023/03/01 04:57:00;;;;;;;12.50;6.18;;;;;;;-6.38;100.00;102812.91;4954131;28;20035;-90
2023/03/01 04:59:25;;;;;;;13.85;6.05;;;;;;;-6.28;100.00;102819.25;4954276;28;20454;-90
2023/03/01 05:01:52;;;;;;;8.73;5.17;;;;;;;-6.34;100.00;102803.13;4948981;28;20031;-90
2023/03/01 05:04:18;;;;;;;9.70;5.57;;;;;;;-6.37;100.00;102811.97;4945062;29;20031;-90
2023/03/01 05:06:44;;;;;;;10.87;5.67;;;;;;;-6.44;100.00;102808.91;4951958;28;20031;-90
2023/03/01 05:09:11;;;;;;;9.88;4.70;;;;;;;-6.39;100.00;102812.09;4953176;28;20107;-90
2023/03/01 05:11:36;;;;;;;9.27;4.82;;;;;;;-6.48;100.00;102823.09;4955819;28;20135;-89
2023/03/01 05:14:03;;;;;;;13.50;5.85;;;;;;;-6.70;100.00;102802.72;4954827;28;20052;-90
2023/03/01 05:16:30;;;;;;;9.32;5.25;;;;;;;-6.85;100.00;102789.69;4939059;28;20117;-91
2023/03/01 05:18:57;;;;;;;13.53;6.07;;;;;;;-6.78;100.00;102808.41;4939155;29;20071;-90
2023/03/01 05:21:22;;;;;;;10.90;5.68;;;;;;;-6.85;100.00;102805.34;4955805;28;20102;-90
2023/03/01 05:23:48;;;;;;;8.70;4.95;;;;;;;-6.76;100.00;102808.34;4949500;28;20118;-89
2023/03/01 05:26:15;;;;;;;10.03;5.40;;;;;;;-6.85;100.00;102794.91;4951948;29;20042;-90
2023/03/01 05:28:41;;;;;;;11.07;5.78;;;;;;;-6.93;100.00;102784.09;4952423;28;20111;-91
2023/03/01 05:31:09;;;;;;;9.13;5.77;;;;;;;-6.86;100.00;102793.25;4956160;28;20073;-89
2023/03/01 05:33:37;;;;;;;11.27;5.25;;;;;;;-6.86;100.00;102795.84;4955289;28;20093;-89
2023/03/01 05:36:03;;;;;;;13.13;5.25;;;;;;;-6.94;100.00;102781.59;4955326;28;20034;-91
2023/03/01 05:38:28;;;;;;;7.57;4.90;;;;;;;-7.00;100.00;102773.22;4970156;28;20027;-92
2023/03/01 05:40:53;;;;;;;9.50;5.43;;;;;;;-6.93;100.00;102776.28;4962068;28;20019;-92
2023/03/01 05:43:19;;;;;;;12.85;5.78;;;;;;;-6.96;100.00;102776.50;4954500;28;20675;-93
2023/03/01 05:45:45;;;;;;;11.03;5.00;;;;;;;-6.99;100.00;102771.47;4958229;28;20565;-92
2023/03/01 05:48:12;;;;;;;11.30;5.80;;;;;;;-7.08;100.00;102761.59;4960992;28;20019;-92
2023/03/01 05:50:43;;;;;;;10.30;5.55;;;;;;;-7.04;100.00;102765.69;4955817;28;20419;-93
2023/03/01 05:53:15;;;;;;;17.60;6.03;;;;;;;-7.15;100.00;102767.19;4954891;28;20035;-92
2023/03/01 05:55:42;;;;;;;10.10;5.75;;;;;;;-7.09;100.00;102775.56;4954039;28;20035;-92
2023/03/01 05:58:11;;;;;;;12.18;5.78;;;;;;;-7.13;100.00;102776.69;4955719;28;20023;-92
2023/03/01 06:00:36;;;;;;;11.50;5.50;;;;;;;-7.19;100.00;102770.91;4952026;28;20342;-92
2023/03/01 06:03:03;;;;;;;10.63;5.73;;;;;;;-7.15;100.00;102779.38;4944457;28;20031;-93
2023/03/01 06:05:34;;;;;;;11.15;5.85;;;;;;;-7.17;100.00;102770.81;4951266;29;20035;-92
2023/03/01 06:08:00;;;;;;;10.75;5.55;;;;;;;-7.20;100.00;102770.97;4939309;29;20072;-93
2023/03/01 06:10:26;;;;;;;12.70;5.60;;;;;;;-7.22;100.00;102770.25;4954828;28;20091;-91
2023/03/01 06:12:51;;;;;;;10.67;5.67;;;;;;;-7.22;100.00;102780.69;4953525;28;20214;-93
2023/03/01 06:15:16;;;;;;;11.30;6.13;;;;;;;-7.33;100.00;102758.69;4954306;28;20055;-93
2023/03/01 06:17:45;;;;;;;17.33;6.47;;;;;;;-7.14;100.00;102773.22;4954020;28;20074;-92
2023/03/01 06:20:20;;;;;;;11.75;5.72;;;;;;;-7.04;100.00;102770.91;4955646;28;20031;-92
2023/03/01 06:22:46;;;;;;;10.52;5.25;;;;;;;-7.00;100.00;102772.41;4952634;29;20392;-92
2023/03/01 06:25:15;;;;;;;11.98;5.90;;;;;;;-7.08;100.00;102761.59;4953578;29;20106;-91
2023/03/01 06:27:41;;;;;;;12.68;6.25;;;;;;;-6.99;100.00;102771.47;4954548;28;20023;-90
2023/03/01 06:30:13;;;;;;;12.30;6.53;;;;;;;-7.10;100.00;102751.28;4953580;28;20034;-88
2023/03/01 06:32:42;;;;;;;15.07;6.47;;;;;;;-7.19;100.00;102744.84;4951790;29;20316;-88
2023/03/01 06:35:12;;;;;;;12.57;6.15;;;;;;;-7.15;100.00;102742.88;4954234;28;20031;-88
2023/03/01 06:37:38;;;;;;;10.20;6.10;;;;;;;-6.98;100.00;102772.28;4954908;28;20101;-86
2023/03/01 06:40:11;;;;;;;11.30;6.40;;;;;;;-7.00;100.00;102754.97;4953392;29;20027;-88
2023/03/01 06:42:48;;;;;;;12.63;5.70;;;;;;;-6.77;100.00;102780.59;4954393;29;20077;-87
2023/03/01 06:45:32;;;;;;;12.52;6.63;;;;;;;-7.03;100.00;102725.66;4954734;29;20099;-89
2023/03/01 06:48:15;;;;;;;10.88;6.50;;;;;;;-6.68;100.00;102787.00;4954337;29;20055;-89
2023/03/01 06:51:16;;;;;;;11.57;5.97;;;;;;;-6.68;100.00;102768.75;4955968;28;20027;-87
2023/03/01 06:53:53;;;;;;;10.97;6.33;;;;;;;-6.66;100.00;102759.88;4952857;28;20310;-88
2023/03/01 07:16:48;;;;;;;16.33;6.78;;;;;;;-5.86;100.00;102781.78;4924518;29;20178;-87
2023/03/01 07:19:31;;;;;;;15.30;7.20;;;;;;;-5.93;100.00;102766.50;4931468;29;20024;-87
2023/03/01 07:21:56;;;;;;;13.93;6.80;;;;;;;-5.72;100.00;102789.53;4930585;29;20300;-88
2023/03/01 07:24:28;;;;;;;11.73;5.68;;;;;;;-5.93;100.00;102749.97;4933438;29;20051;-86
2023/03/01 07:44:33;;;;;;;13.00;6.88;;;;;;;-4.77;100.00;102793.59;5675095;23;20079;-86
2023/03/01 07:47:10;;;;;;;14.10;6.75;;;;;;;-4.57;100.00;102800.88;4938981;29;20138;-86
2023/03/01 07:49:36;;;;;;;14.20;7.18;;;;;;;-4.65;100.00;102777.03;4922525;29;20032;-85
2023/03/01 07:55:33;;;;;;;15.50;7.18;;;;;;;-4.31;100.00;102794.72;4979286;23;20051;-84
2023/03/01 08:09:37;;;;;;;11.85;7.18;;;;;;;-3.69;100.00;102801.53;5815336;23;20055;-85
2023/03/01 08:23:17;;;;;;;13.70;6.68;;;;;;;-3.04;100.00;102798.44;4936759;29;20640;-84
2023/03/01 08:25:42;;;;;;;16.10;7.38;;;;;;;-3.02;100.00;102778.16;4933374;29;20499;-84
2023/03/01 08:28:20;;;;;;;10.87;6.80;;;;;;;-3.05;100.00;102778.38;4932350;29;20091;-84
2023/03/01 08:31:01;;;;;;;12.48;7.22;;;;;;;-3.09;100.00;102748.09;4935653;29;20653;-84
2023/03/01 08:33:55;;;;;;;12.98;7.38;;;;;;;-2.61;100.00;102795.06;4923577;29;20031;-85
2023/03/01 08:36:29;;;;;;;11.57;6.82;;;;;;;-2.51;100.00;102792.56;4984508;23;20059;-84
2023/03/01 08:38:55;;;;;;;14.00;6.17;;;;;;;-2.40;100.00;102780.34;4956876;28;20077;-84
2023/03/01 08:41:24;;;;;;;12.93;6.20;;;;;;;-2.22;100.00;102784.09;4954276;28;20833;-84
2023/03/01 08:43:58;;;;;;;10.05;6.05;;;;;;;-2.23;100.00;102765.84;4953965;28;20598;-83
2023/03/01 08:46:24;;;;;;;12.13;5.13;;;;;;;-2.10;100.00;102766.53;4954666;28;20028;-83
2023/03/01 08:48:50;;;;;;;12.77;6.20;;;;;;;-1.91;100.00;102759.75;4954077;28;20038;-84
2023/03/01 08:51:19;;;;;;;8.82;5.78;;;;;;;-1.76;100.00;102774.25;4953354;28;20030;-83
2023/03/01 08:53:45;;;;;;;9.38;5.68;;;;;;;-1.70;100.00;102768.47;4948843;29;20427;-84
2023/03/01 08:56:11;;;;;;;9.55;4.88;;;;;;;-1.59;100.00;102770.22;4953374;29;20051;-83
2023/03/01 08:58:37;;;;;;;8.43;5.90;;;;;;;-1.58;100.00;102768.41;4952828;29;20577;-83
2023/03/01 09:01:15;;;;;;;8.73;5.25;;;;;;;-1.44;100.00;102778.59;4954415;28;20034;-86
2023/03/01 09:03:41;;;;;;;10.00;6.05;;;;;;;-1.54;100.00;102754.03;4953199;29;20039;-86
2023/03/01 09:06:07;;;;;;;10.77;6.00;;;;;;;-1.39;100.00;102760.63;4954533;28;20038;-85
2023/03/01 09:08:42;;;;;;;10.63;6.55;;;;;;;-1.27;100.00;102768.44;4952817;29;20086;-86
2023/03/01 09:11:09;;;;;;;10.30;5.10;;;;;;;-1.18;100.00;102756.28;4951622;28;20035;-86
2023/03/01 09:13:35;;;;;;;15.63;5.83;;;;;;;-1.13;100.00;102768.09;4952376;28;20309;-86
2023/03/01 09:16:04;;;;;;;12.73;6.60;;;;;;;-1.08;98.53;102751.91;4954149;28;20040;-87
2023/03/01 09:18:30;;;;;;;10.95;5.45;;;;;;;-0.92;98.46;102756.69;4952269;28;20020;-86
2023/03/01 09:34:22;;;;;;;7.82;5.65;;;;;;;-0.44;96.60;102754.28;4902296;29;20051;-86
2023/03/01 09:36:57;;;;;;;13.35;6.07;;;;;;;-0.43;94.79;102725.16;4915735;29;20068;-86
2023/03/01 09:39:54;;;;;;;9.90;5.35;;;;;;;-0.21;93.61;102744.31;4917049;29;20047;-87
2023/03/01 09:42:31;;;;;;;8.55;4.68;;;;;;;-0.25;92.83;102713.94;4915254;29;20091;-87
2023/03/01 09:45:06;;;;;;;9.63;4.93;;;;;;;-0.07;91.87;102751.78;4915851;29;20036;-86
2023/03/01 09:47:41;;;;;;;8.33;4.47;;;;;;;0.02;91.14;102744.84;4915440;29;20025;-86
2023/03/01 09:50:13;;;;;;;9.53;5.10;;;;;;;0.14;90.71;102738.47;4916149;29;20280;-86
2023/03/01 09:53:11;;;;;;;10.85;5.50;;;;;;;0.34;87.11;102733.16;4915880;29;20031;-86
2023/03/01 09:55:38;;;;;;;7.40;4.68;;;;;;;0.43;85.34;102737.56;4931237;29;20095;-86
2023/03/01 09:58:27;;;;;;;9.00;4.70;;;;;;;0.50;85.53;102721.19;4915168;29;20110;-85
2023/03/01 10:00:56;;;;;;;9.73;4.80;;;;;;;0.48;84.35;102715.22;4914703;29;20060;-85
2023/03/01 10:03:36;;;;;;;7.47;4.63;;;;;;;0.65;82.72;102716.25;4914620;29;20033;-86
2023/03/01 10:06:14;;;;;;;6.78;4.70;;;;;;;0.63;83.29;102716.41;4912773;29;20091;-86
2023/03/01 10:08:58;;;;;;;6.87;4.63;;;;;;;0.67;82.83;102696.66;4914016;29;20083;-86
2023/03/01 10:11:37;;;;;;;8.00;4.73;;;;;;;0.71;83.13;102684.84;4916773;29;20283;-86
2023/03/01 10:14:34;;;;;;;9.93;4.53;;;;;;;0.74;84.17;102697.72;4914712;29;20476;-85
2023/03/01 10:17:08;;;;;;;9.18;3.88;;;;;;;0.74;84.34;102676.63;4914346;29;20075;-86
2023/03/01 10:19:39;;;;;;;8.10;4.30;;;;;;;0.79;82.67;102678.00;4914826;29;20428;-86
2023/03/01 10:22:29;;;;;;;8.43;5.18;;;;;;;0.88;83.98;102677.13;4912380;29;20024;-86
2023/03/01 10:24:57;;;;;;;10.13;4.47;;;;;;;0.96;80.42;102681.66;4913304;29;20130;-85
2023/03/01 10:27:44;;;;;;;11.00;4.55;;;;;;;1.04;79.51;102669.38;4914344;29;20028;-85
2023/03/01 10:30:21;;;;;;;8.30;4.93;;;;;;;0.90;79.60;102648.78;4908972;29;20484;-86
2023/03/01 10:32:59;;;;;;;5.90;4.07;;;;;;;1.15;78.58;102651.66;4895193;29;20293;-86
2023/03/01 10:35:40;;;;;;;9.18;4.82;;;;;;;1.15;76.32;102649.00;4895765;29;20100;-85
2023/03/01 10:38:25;;;;;;;8.88;4.13;;;;;;;1.16;76.57;102634.81;4884819;29;20037;-86
2023/03/01 10:41:06;;;;;;;9.30;4.95;;;;;;;1.26;75.15;102647.97;4895890;29;20024;-86
2023/03/01 10:43:45;;;;;;;8.48;5.20;;;;;;;1.29;74.51;102626.53;4894701;29;20025;-86
2023/03/01 10:46:32;;;;;;;9.30;4.53;;;;;;;1.58;74.00;102668.56;4911431;29;20115;-86
2023/03/01 10:49:13;;;;;;;10.25;5.20;;;;;;;1.57;73.55;102661.63;4915271;29;20149;-86
2023/03/01 10:51:46;;;;;;;6.80;4.13;;;;;;;1.56;72.20;102649.38;4914110;29;20559;-86
2023/03/01 10:54:28;;;;;;;6.13;3.83;;;;;;;1.73;73.49;102666.22;4915333;29;20055;-86
2023/03/01 10:56:56;;;;;;;7.63;3.90;;;;;;;1.76;71.60;102651.84;4913110;29;20291;-85
2023/03/01 10:59:33;;;;;;;11.13;4.68;;;;;;;1.71;71.10;102638.25;4912999;29;20048;-85
2023/03/01 11:02:27;;;;;;;7.85;5.30;;;;;;;1.95;71.29;102664.88;4914787;29;20031;-85
2023/03/01 11:05:19;;;;;;;11.00;5.82;;;;;;;2.06;70.23;102657.66;4913249;29;20095;-85
2023/03/01 11:07:58;;;;;;;5.70;4.22;;;;;;;2.23;70.53;102664.72;4928503;29;20541;-85
2023/03/01 11:10:39;;;;;;;8.25;4.95;;;;;;;2.33;70.46;102661.13;4914228;29;20043;-85
2023/03/01 11:13:20;;;;;;;5.43;3.97;;;;;;;2.32;70.75;102644.41;5709947;23;20065;-85
2023/03/01 11:16:07;;;;;;;12.75;5.78;;;;;;;2.39;69.50;102634.03;4950189;29;20276;-85
2023/03/01 11:18:33;;;;;;;9.63;5.17;;;;;;;2.51;69.37;102642.53;4952001;28;20062;-86
2023/03/01 11:21:01;;;;;;;9.13;5.37;;;;;;;2.70;67.27;102641.44;4951765;28;20358;-86
2023/03/01 11:23:30;;;;;;;8.13;5.80;;;;;;;2.76;65.67;102659.31;4950167;28;20087;-86
2023/03/01 11:26:02;;;;;;;10.05;6.25;;;;;;;2.77;67.29;102650.38;4952185;28;20031;-86
2023/03/01 11:28:39;;;;;;;10.20;5.80;;;;;;;2.86;65.78;102651.25;4952074;28;20031;-85
2023/03/01 11:31:08;;;;;;;8.37;4.87;;;;;;;2.97;67.56;102656.25;4951965;28;20294;-85
2023/03/01 11:33:49;;;;;;;9.38;4.63;;;;;;;3.05;66.14;102659.91;4952238;28;20038;-85
2023/03/01 11:36:55;;;;;;;8.07;5.05;;;;;;;3.13;66.83;102658.09;4951978;28;20499;-85
2023/03/01 11:39:42;;;;;;;9.73;4.78;;;;;;;3.24;66.00;102658.78;4952657;29;20160;-86
2023/03/01 11:42:42;;;;;;;8.23;5.18;;;;;;;3.28;66.43;102654.81;4950112;28;20039;-85
2023/03/01 11:45:13;;;;;;;8.13;4.35;;;;;;;3.34;64.99;102640.91;4935236;29;20131;-85
2023/03/01 11:48:25;;;;;;;7.05;4.60;;;;;;;3.52;64.70;102646.06;4932269;29;20504;-85
2023/03/01 12:03:00;;;;;;;9.40;5.47;;;;;;;3.88;62.03;102634.25;5560025;23;20134;-85
2023/03/01 12:05:41;;;;;;;9.35;4.97;;;;;;;4.00;61.13;102632.91;4936261;29;20043;-84
2023/03/01 12:08:47;;;;;;;9.40;5.60;;;;;;;4.01;63.55;102621.31;4938829;29;20028;-84
2023/03/01 12:11:31;;;;;;;8.75;5.53;;;;;;;4.07;62.20;102620.63;4929112;29;20036;-84
2023/03/01 12:14:37;;;;;;;9.52;5.35;;;;;;;4.14;60.99;102623.41;4917869;29;20115;-85
2023/03/01 12:17:17;;;;;;;8.38;5.50;;;;;;;4.23;60.53;102619.75;4915898;29;20047;-85
2023/03/01 12:20:20;;;;;;;9.27;4.33;;;;;;;4.33;60.32;102624.00;4916704;29;20028;-85
2023/03/01 12:22:49;;;;;;;8.07;5.43;;;;;;;4.34;60.15;102615.06;4922772;29;20315;-85
2023/03/01 12:25:33;;;;;;;8.73;5.15;;;;;;;4.49;59.21;102596.59;4925265;29;20095;-86
2023/03/01 12:28:38;;;;;;;6.60;4.90;;;;;;;4.40;59.19;102601.91;4923404;29;20043;-85
2023/03/01 12:31:33;;;;;;;9.00;5.03;;;;;;;4.45;60.25;102605.88;4918170;29;20100;-86
2023/03/01 12:34:33;;;;;;;8.35;5.15;;;;;;;4.47;59.11;102587.97;4919833;29;20040;-85
2023/03/01 12:37:20;;;;;;;9.00;4.90;;;;;;;4.48;59.02;102587.78;4916824;29;20041;-85
2023/03/01 12:40:07;;;;;;;9.40;4.75;;;;;;;4.48;56.57;102595.75;4915901;29;20040;-85
2023/03/01 12:43:12;;;;;;;7.50;4.87;;;;;;;4.53;58.69;102584.63;4916729;29;20145;-85
2023/03/01 12:45:43;;;;;;;6.63;4.10;;;;;;;4.56;56.01;102584.28;4915294;29;20123;-85
2023/03/01 12:48:31;;;;;;;10.27;5.28;;;;;;;4.67;57.81;102581.22;4917086;29;20044;-85
2023/03/01 12:51:01;;;;;;;7.10;5.00;;;;;;;4.74;56.33;102580.53;4917025;29;20032;-85
2023/03/01 12:53:30;;;;;;;10.63;4.32;;;;;;;4.69;56.47;102576.56;4917045;29;20051;-85
2023/03/01 12:56:01;;;;;;;6.88;4.72;;;;;;;4.69;56.12;102573.91;4915987;29;20032;-84
2023/03/01 12:58:41;;;;;;;10.00;4.60;;;;;;;4.69;56.35;102563.28;4915244;29;20523;-87
2023/03/01 13:01:22;;;;;;;8.82;4.57;;;;;;;4.72;56.95;102558.63;4917156;29;20036;-84
2023/03/01 13:04:19;;;;;;;7.23;3.53;;;;;;;4.80;56.52;102563.88;4917588;29;20056;-85
2023/03/01 13:07:05;;;;;;;9.43;4.75;;;;;;;4.73;55.97;102557.63;4915374;29;20415;-85
2023/03/01 13:09:55;;;;;;;7.07;4.60;;;;;;;4.74;56.35;102543.34;4916114;29;20027;-85
2023/03/01 13:13:27;;;;;;;6.32;3.95;;;;;;;4.73;57.14;102541.69;4947497;23;20055;-88
2023/03/01 13:16:29;;;;;;;7.18;4.63;;;;;;;4.73;57.31;102526.56;4933355;29;20133;-87
2023/03/01 13:23:20;;;;;;;7.47;4.53;;;;;;;4.64;56.81;102533.75;4962530;23;20051;-86
2023/03/01 13:39:50;;;;;;;6.68;4.90;;;;;;;4.67;57.12;102496.25;4894455;29;20048;-86
2023/03/01 13:45:51;;;;;;;11.00;5.38;;;;;;;4.74;55.84;102492.88;4893656;29;20123;-87
2023/03/01 13:48:26;;;;;;;7.65;5.07;;;;;;;4.69;56.32;102470.34;4891768;29;20548;-87
2023/03/01 13:51:02;;;;;;;5.78;4.20;;;;;;;4.77;55.82;102473.91;4906418;29;20043;-87
2023/03/01 13:53:33;;;;;;;8.40;4.53;;;;;;;4.68;56.29;102462.53;4936045;28;20047;-87
2023/03/01 13:56:26;;;;;;;6.53;4.50;;;;;;;4.69;56.85;102462.38;4934567;29;20075;-87
2023/03/01 13:59:01;;;;;;;7.13;5.17;;;;;;;4.70;56.64;102458.72;4934818;29;20299;-87
2023/03/01 14:01:34;;;;;;;9.48;5.03;;;;;;;4.62;56.07;102439.38;5025124;23;1090454;-87
2023/03/01 14:04:01;;;;;;;8.35;5.07;;;;;;;4.73;56.03;102454.06;4915881;29;20427;-87
2023/03/01 14:07:04;;;;;;;8.68;5.00;;;;;;;4.82;56.98;102456.47;4917861;29;20522;-88
2023/03/01 14:13:10;;;;;;;8.50;4.78;;;;;;;4.88;56.22;102452.25;5204581;23;20051;-88
2023/03/01 14:40:05;;;;;;;8.23;4.53;;;;;;;4.83;55.12;102446.66;4935113;29;20066;-89
2023/03/01 14:59:43;;;;;;;9.07;5.47;;;;;;;4.62;55.02;102371.13;4952466;29;20118;-86
2023/03/01 15:02:17;;;;;;;8.95;4.85;;;;;;;4.80;54.57;102388.56;4949417;28;20034;-86
2023/03/01 15:04:46;;;;;;;10.27;4.72;;;;;;;4.74;55.12;102386.66;4950426;28;20035;-86
2023/03/01 15:07:15;;;;;;;11.00;5.07;;;;;;;4.73;54.50;102382.34;4935799;29;20024;-86
2023/03/01 15:09:41;;;;;;;8.73;4.83;;;;;;;4.66;54.26;102380.41;4951558;28;20467;-86
2023/03/01 15:12:28;;;;;;;7.90;4.80;;;;;;;4.75;54.79;102388.31;4950860;28;20308;-85